Time;durP1;ratioP1;P1;durP2;ratioP2;P2;SDS_P1;SDS_P2;PMS_P1;PMS_P2;Temp;Humidity;BMP_temperature;BMP_pressure;BME280_temperature;BME280_humidity;BME280_pressure;Samples;Min_cycle;Max_cycle;Signal;HPM_P1;HPM_P2
2020/12/30 18:22:59;;;;;;;;;;;;;;;13.30;49.14;98633.16;1456430;26;19937;-78
2020/12/30 18:25:25;;;;;;;;;;;;;;;13.29;49.43;98637.63;4994048;28;19961;-77
2020/12/30 18:27:52;;;;;;;;;;;;;;;13.29;49.54;98636.75;4994969;28;20027;-78
2020/12/30 18:30:18;;;;;;;;;;;;;;;13.28;49.54;98633.25;4996162;28;20293;-78
2020/12/30 18:32:43;;;;;;;;;;;;;;;13.23;48.85;98636.25;4993458;28;20009;-79
2020/12/30 18:35:09;;;;;;;;;;;;;;;13.22;49.00;98637.19;4979278;28;19922;-78
2020/12/30 18:37:35;;;;;;;;;;;;;;;13.30;49.20;98633.16;4996296;28;19922;-78
2020/12/30 18:40:03;;;;;;;;;;;;;;;13.32;49.39;98639.19;4994640;28;19934;-78
2020/12/30 18:42:29;;;;;;;;;;;;;;;13.30;49.53;98643.78;4994631;28;19922;-79
2020/12/30 18:44:54;;;;;;;;;;;;;;;13.32;49.59;98642.69;4995974;28;20203;-79
2020/12/30 18:47:20;;;;;;;;;;;;;;;13.31;49.38;98648.16;4996309;28;19926;-79
2020/12/30 18:49:45;;;;;;;;;;;;;;;13.27;49.25;98644.84;4993297;28;19922;-78
2020/12/30 18:52:11;;;;;;;;;;;;;;;13.24;49.16;98647.72;4996216;28;19928;-80
2020/12/30 18:54:36;;;;;;;;;;;;;;;13.23;49.05;98638.91;4979171;28;20194;-77
2020/12/30 18:57:02;;;;;;;;;;;;;;;13.22;48.85;98642.50;4996241;28;20329;-77
2020/12/30 18:59:28;;;;;;;;;;;;;;;13.23;48.23;98644.22;4995220;28;19933;-81
2020/12/30 19:01:53;;;;;;;;;;;;;;;13.23;48.32;98643.38;4996535;28;19926;-79
2020/12/30 19:04:19;;;;;;;;;;;;;;;13.25;48.62;98644.13;4993909;28;19922;-79
2020/12/30 19:06:44;;;;;;;;;;;;;;;13.29;48.54;98644.75;4978030;28;19921;-81
2020/12/30 19:09:10;;;;;;;;;;;;;;;13.22;48.52;98639.84;4996181;28;19928;-82
2020/12/30 19:11:35;;;;;;;;;;;;;;;13.26;48.32;98640.50;4995176;28;20375;-78
2020/12/30 19:14:01;;;;;;;;;;;;;;;13.29;48.27;98647.41;4978667;28;19929;-79
2020/12/30 19:16:27;;;;;;;;;;;;;;;13.36;48.07;98638.06;4979037;28;19928;-79
2020/12/30 19:18:53;;;;;;;;;;;;;;;13.33;48.11;98644.44;4978736;28;19922;-80
2020/12/30 19:21:19;;;;;;;;;;;;;;;13.35;48.17;98647.00;4995795;28;19922;-79
2020/12/30 19:23:45;;;;;;;;;;;;;;;13.34;47.92;98647.94;4995004;28;19938;-79
2020/12/30 19:26:13;;;;;;;;;;;;;;;13.32;48.13;98641.84;4996102;28;19929;-79
2020/12/30 19:28:39;;;;;;;;;;;;;;;13.32;47.91;98647.19;4978531;28;20370;-77
2020/12/30 19:31:04;;;;;;;;;;;;;;;13.32;48.15;98647.19;4995428;28;20012;-79
2020/12/30 19:33:30;;;;;;;;;;;;;;;13.35;48.08;98647.81;4978628;28;20363;-79
2020/12/30 19:35:55;;;;;;;;;;;;;;;13.34;47.95;98655.91;4995045;28;19929;-76
2020/12/30 19:38:21;;;;;;;;;;;;;;;13.34;47.96;98661.25;4995191;28;20289;-79
2020/12/30 19:40:46;;;;;;;;;;;;;;;13.37;48.43;98661.03;4994961;28;19926;-79
2020/12/30 19:43:11;;;;;;;;;;;;;;;13.35;48.64;98657.63;4995171;28;19940;-78
2020/12/30 19:45:37;;;;;;;;;;;;;;;13.24;48.56;98661.91;4993647;28;19929;-77
2020/12/30 19:48:03;;;;;;;;;;;;;;;13.14;48.67;98666.16;4995441;28;20017;-79
2020/12/30 19:50:28;;;;;;;;;;;;;;;13.24;48.07;98675.19;4994953;28;19992;-80
2020/12/30 19:52:56;;;;;;;;;;;;;;;13.23;47.72;98673.50;4977916;28;19922;-78
2020/12/30 19:55:22;;;;;;;;;;;;;;;13.23;47.95;98670.00;4994410;28;19937;-79
2020/12/30 19:57:47;;;;;;;;;;;;;;;13.19;47.81;98668.50;4995141;28;19930;-79
2020/12/30 20:00:13;;;;;;;;;;;;;;;13.28;47.77;98673.16;4994570;28;20024;-80
2020/12/30 20:02:38;;;;;;;;;;;;;;;13.29;47.82;98666.03;4978261;28;19984;-80
2020/12/30 20:05:04;;;;;;;;;;;;;;;13.21;47.99;98672.75;4994599;28;19922;-80
2020/12/30 20:07:29;;;;;;;;;;;;;;;13.11;48.21;98666.38;4995283;28;19921;-78
2020/12/30 20:09:55;;;;;;;;;;;;;;;13.06;47.72;98673.84;4995524;28;19922;-78
2020/12/30 20:12:23;;;;;;;;;;;;;;;13.11;47.37;98671.69;4978218;28;19922;-76
2020/12/30 20:14:59;;;;;;;;;;;;;;;13.18;47.29;98669.44;4994731;28;20308;-77
2020/12/30 20:17:25;;;;;;;;;;;;;;;13.26;47.37;98664.44;4978159;28;20009;-78
2020/12/30 20:19:50;;;;;;;;;;;;;;;13.35;47.57;98660.28;4994909;28;20012;-79
2020/12/30 20:22:16;;;;;;;;;;;;;;;13.35;47.94;98657.63;4995406;28;20032;-78
2020/12/30 20:24:41;;;;;;;;;;;;;;;13.32;47.98;98663.13;4995618;28;20224;-79
2020/12/30 20:27:06;;;;;;;;;;;;;;;13.22;48.20;98662.97;4994981;28;19930;-79
2020/12/30 20:29:37;;;;;;;;;;;;;;;13.20;48.22;98663.06;4978066;28;20008;-81
2020/12/30 20:32:02;;;;;;;;;;;;;;;13.10;48.17;98656.72;4978762;28;19930;-79
2020/12/30 20:34:28;;;;;;;;;;;;;;;13.07;48.05;98660.44;4994819;28;19933;-79
2020/12/30 20:36:53;;;;;;;;;;;;;;;13.10;47.48;98656.72;4994271;28;19925;-77
2020/12/30 20:39:19;;;;;;;;;;;;;;;13.10;47.50;98659.38;4994538;28;20078;-78
2020/12/30 20:41:44;;;;;;;;;;;;;;;13.13;46.87;98663.59;4989750;28;19926;-78
2020/12/30 20:44:10;;;;;;;;;;;;;;;13.13;46.91;98653.84;4994280;28;20331;-79
2020/12/30 20:46:36;;;;;;;;;;;;;;;13.14;47.20;98655.53;4994682;28;20008;-79
2020/12/30 20:49:02;;;;;;;;;;;;;;;13.03;47.11;98658.09;4994922;28;19949;-79
2020/12/30 20:51:27;;;;;;;;;;;;;;;13.00;47.21;98650.34;4993702;28;20015;-77
2020/12/30 20:53:53;;;;;;;;;;;;;;;13.02;47.04;98656.38;4998062;28;19925;-80
2020/12/30 20:56:19;;;;;;;;;;;;;;;13.05;47.12;98653.50;4997755;28;19922;-79
2020/12/30 20:58:45;;;;;;;;;;;;;;;13.07;47.06;98651.59;4998600;28;19968;-78
2020/12/30 21:01:11;;;;;;;;;;;;;;;13.01;47.28;98660.03;4998383;28;19976;-82
2020/12/30 21:03:37;;;;;;;;;;;;;;;13.11;47.05;98660.22;4998593;28;20437;-78
2020/12/30 21:06:20;;;;;;;;;;;;;;;13.10;47.03;98656.72;4998123;28;19961;-80
2020/12/30 21:08:45;;;;;;;;;;;;;;;13.17;47.05;98654.47;4996271;28;19929;-79
2020/12/30 21:11:11;;;;;;;;;;;;;;;13.09;47.34;98655.00;4998295;28;19921;-78
2020/12/30 21:13:37;;;;;;;;;;;;;;;13.04;47.31;98657.16;4998799;28;19948;-81
2020/12/30 21:16:05;;;;;;;;;;;;;;;13.10;46.85;98654.06;4998544;28;19932;-79
2020/12/30 21:18:31;;;;;;;;;;;;;;;13.17;46.67;98660.63;4980766;28;20297;-78
2020/12/30 21:20:57;;;;;;;;;;;;;;;13.07;46.87;98654.28;4997512;28;19945;-78
2020/12/30 21:23:23;;;;;;;;;;;;;;;13.04;47.28;98657.16;4997674;28;19963;-78
2020/12/30 21:25:49;;;;;;;;;;;;;;;13.00;47.13;98659.19;4997506;28;19964;-77
2020/12/30 21:28:15;;;;;;;;;;;;;;;12.99;47.22;98653.97;4979665;28;19922;-77
2020/12/30 21:30:40;;;;;;;;;;;;;;;12.98;47.01;98655.75;4980943;28;20004;-77
2020/12/30 21:33:05;;;;;;;;;;;;;;;12.95;46.76;98655.97;4996433;28;19922;-79
2020/12/30 21:35:31;;;;;;;;;;;;;;;12.83;46.73;98648.88;4996600;28;20209;-77
2020/12/30 21:37:57;;;;;;;;;;;;;;;12.72;46.56;98655.78;4996565;28;19921;-78
2020/12/30 21:40:22;;;;;;;;;;;;;;;12.77;46.74;98649.31;4996984;28;19936;-80
2020/12/30 21:42:47;;;;;;;;;;;;;;;12.75;46.85;98654.72;4997388;28;19949;-78
2020/12/30 21:45:13;;;;;;;;;;;;;;;12.76;46.62;98652.91;4996623;28;19929;-78
2020/12/30 21:47:38;;;;;;;;;;;;;;;12.78;46.73;98657.19;4995719;28;19922;-77
2020/12/30 21:50:04;;;;;;;;;;;;;;;12.90;46.72;98661.59;4996328;28;19992;-78
2020/12/30 21:52:29;;;;;;;;;;;;;;;12.88;46.74;98666.19;4979895;28;19944;-79
2020/12/30 21:54:54;;;;;;;;;;;;;;;12.90;46.63;98669.59;4997510;28;20020;-78
2020/12/30 21:57:29;;;;;;;;;;;;;;;12.84;46.73;98666.50;4979178;28;19972;-75
2020/12/30 21:59:55;;;;;;;;;;;;;;;12.74;46.11;98671.63;4980068;28;19922;-78
2020/12/30 22:02:20;;;;;;;;;;;;;;;12.85;46.40;98670.88;4996178;28;19921;-76
2020/12/30 22:04:46;;;;;;;;;;;;;;;12.86;46.01;98665.47;4995207;28;19922;-77
2020/12/30 22:07:11;;;;;;;;;;;;;;;12.87;46.50;98667.13;4996270;28;20281;-76
2020/12/30 22:09:36;;;;;;;;;;;;;;;12.96;46.68;98664.81;4995947;28;20332;-77
2020/12/30 22:12:02;;;;;;;;;;;;;;;13.00;46.64;98659.19;4996255;28;20225;-76
2020/12/30 22:14:27;;;;;;;;;;;;;;;13.04;46.76;98657.97;4996710;28;19918;-79
2020/12/30 22:16:53;;;;;;;;;;;;;;;13.07;46.86;98660.44;4997133;28;19921;-79
2020/12/30 22:19:19;;;;;;;;;;;;;;;13.12;47.01;98652.13;4979616;28;19929;-79
2020/12/30 22:21:45;;;;;;;;;;;;;;;13.17;47.18;98644.66;4994351;28;19926;-78
2020/12/30 22:24:10;;;;;;;;;;;;;;;13.22;47.29;98647.84;4996363;28;20272;-78
2020/12/30 22:26:36;;;;;;;;;;;;;;;13.31;47.51;98650.81;4978929;28;19988;-79
2020/12/30 22:29:01;;;;;;;;;;;;;;;13.29;47.62;98644.75;4979774;28;20285;-80
2020/12/30 22:31:29;;;;;;;;;;;;;;;13.16;47.72;98642.97;4996563;28;19922;-80
2020/12/30 22:33:55;;;;;;;;;;;;;;;13.19;47.08;98642.72;4997109;28;19925;-81
2020/12/30 22:36:21;;;;;;;;;;;;;;;13.25;47.02;98642.28;4997325;28;20017;-79
2020/12/30 22:38:48;;;;;;;;;;;;;;;13.25;47.44;98639.63;4979358;28;19921;-79
2020/12/30 22:41:14;;;;;;;;;;;;;;;13.29;47.27;98648.28;4994137;28;19921;-76
2020/12/30 22:43:39;;;;;;;;;;;;;;;13.29;47.38;98645.59;4994922;28;20174;-77
2020/12/30 22:46:06;;;;;;;;;;;;;;;13.33;47.71;98644.44;4995328;28;20313;-78
2020/12/30 22:48:31;;;;;;;;;;;;;;;13.30;47.76;98635.81;4995587;28;19929;-77
2020/12/30 22:50:58;;;;;;;;;;;;;;;13.31;47.91;98629.53;4995665;28;19921;-78
2020/12/30 22:53:24;;;;;;;;;;;;;;;13.31;48.00;98633.03;4995358;28;19929;-78
2020/12/30 22:55:49;;;;;;;;;;;;;;;13.31;48.13;98645.50;4996469;28;19988;-80
2020/12/30 22:58:15;;;;;;;;;;;;;;;13.31;48.11;98637.53;4995889;28;20418;-76
2020/12/30 23:00:40;;;;;;;;;;;;;;;13.33;48.04;98638.28;4977983;28;20351;-76
2020/12/30 23:03:05;;;;;;;;;;;;;;;13.33;48.01;98639.13;4979295;28;19921;-77
2020/12/30 23:05:31;;;;;;;;;;;;;;;13.38;47.96;98639.63;4978571;28;20016;-78
2020/12/30 23:07:58;;;;;;;;;;;;;;;13.44;47.87;98636.53;4996236;28;20257;-76
2020/12/30 23:10:23;;;;;;;;;;;;;;;13.43;48.02;98636.63;4995358;28;19925;-76
2020/12/30 23:12:49;;;;;;;;;;;;;;;13.39;48.24;98637.84;4995979;28;19988;-79
2020/12/30 23:15:14;;;;;;;;;;;;;;;13.31;48.37;98640.19;4995522;28;20216;-76
2020/12/30 23:17:40;;;;;;;;;;;;;;;13.27;48.04;98635.06;4996040;28;20000;-76
2020/12/30 23:20:07;;;;;;;;;;;;;;;13.29;47.53;98627.00;4993248;28;19936;-77
2020/12/30 23:22:32;;;;;;;;;;;;;;;13.31;47.41;98630.38;4996059;28;20322;-78
2020/12/30 23:24:57;;;;;;;;;;;;;;;13.33;47.56;98624.97;4996089;28;19921;-77
2020/12/30 23:27:23;;;;;;;;;;;;;;;13.34;47.32;98624.88;4978152;28;19922;-79
2020/12/30 23:29:48;;;;;;;;;;;;;;;13.25;47.75;98615.69;4995562;28;19922;-77
2020/12/30 23:32:14;;;;;;;;;;;;;;;13.24;47.42;98613.16;4978059;28;19936;-78
2020/12/30 23:34:40;;;;;;;;;;;;;;;13.22;47.41;98613.25;4995579;28;20281;-76
2020/12/30 23:37:05;;;;;;;;;;;;;;;13.27;47.24;98615.59;4994013;28;19922;-79
2020/12/30 23:39:31;;;;;;;;;;;;;;;13.32;47.30;98610.78;4979030;28;19922;-76
2020/12/30 23:41:56;;;;;;;;;;;;;;;13.31;47.12;98610.91;4995243;28;19934;-77
2020/12/30 23:44:21;;;;;;;;;;;;;;;13.33;47.12;98617.84;4978376;28;19991;-77
2020/12/30 23:46:47;;;;;;;;;;;;;;;13.38;46.91;98614.84;4995300;28;19984;-77
2020/12/30 23:49:12;;;;;;;;;;;;;;;13.38;47.07;98612.19;4994871;28;19926;-77
2020/12/30 23:51:38;;;;;;;;;;;;;;;13.40;47.17;98613.78;4977705;28;20003;-77
2020/12/30 23:54:03;;;;;;;;;;;;;;;13.41;47.41;98609.31;4994653;28;19921;-77
2020/12/30 23:56:30;;;;;;;;;;;;;;;13.38;47.77;98606.88;4994915;28;19992;-77
2020/12/30 23:58:56;;;;;;;;;;;;;;;13.36;47.84;98608.78;4995263;28;20004;-78
